Time;durP1;ratioP1;P1;durP2;ratioP2;P2;SDS_P1;SDS_P2;PMS_P1;PMS_P2;Temp;Humidity;BMP_temperature;BMP_pressure;BME280_temperature;BME280_humidity;BME280_pressure;Samples;Min_cycle;Max_cycle;Signal;HPM_P1;HPM_P2
2022/08/13 00:01:40;;;;;;;13.00;5.68;;;15.10;79.00;;;;;;6335667;22;19999;-69
2022/08/13 00:04:15;;;;;;;18.25;5.05;;;15.10;79.40;;;;;;6334281;22;20418;-71
2022/08/13 00:09:12;;;;;;;8.13;3.00;;;15.10;79.70;;;;;;6335356;22;20547;-72
2022/08/13 00:14:35;;;;;;;5.97;2.65;;;15.10;79.90;;;;;;6335369;22;20044;-72
2022/08/13 00:17:02;;;;;;;3.05;1.38;;;15.10;79.40;;;;;;6333946;22;20048;-70
2022/08/13 00:19:30;;;;;;;5.78;1.92;;;15.10;79.30;;;;;;6335126;22;20006;-68
2022/08/13 00:21:59;;;;;;;6.07;1.70;;;15.00;79.10;;;;;;6334233;22;20025;-68
2022/08/13 00:24:26;;;;;;;6.30;2.80;;;15.00;79.00;;;;;;6334073;22;20035;-73
2022/08/13 00:26:53;;;;;;;5.57;1.98;;;15.00;78.90;;;;;;6335449;22;19995;-69
2022/08/13 00:29:19;;;;;;;4.40;2.33;;;15.00;78.90;;;;;;6334094;22;19994;-68
2022/08/13 00:31:49;;;;;;;6.75;2.63;;;15.00;78.80;;;;;;6335087;22;20029;-69
2022/08/13 00:34:17;;;;;;;6.10;2.53;;;15.00;78.90;;;;;;6334340;22;19999;-69
2022/08/13 00:36:45;;;;;;;6.40;3.17;;;15.00;78.90;;;;;;6335038;22;20002;-69
2022/08/13 00:39:11;;;;;;;5.00;2.88;;;15.00;78.90;;;;;;6333957;22;20318;-71
2022/08/13 00:41:42;;;;;;;2.97;1.70;;;15.00;78.80;;;;;;6334653;22;20002;-68
2022/08/13 00:44:13;;;;;;;4.30;2.42;;;14.90;78.80;;;;;;6335263;22;20471;-69
2022/08/13 00:46:40;;;;;;;2.60;1.73;;;14.90;78.60;;;;;;6334125;22;19995;-69
2022/08/13 00:49:08;;;;;;;4.43;2.00;;;14.90;78.70;;;;;;6334613;22;20010;-69
2022/08/13 00:51:36;;;;;;;5.97;2.58;;;14.90;78.70;;;;;;6333593;22;20011;-70
2022/08/13 00:54:06;;;;;;;9.55;2.63;;;14.90;78.70;;;;;;6335017;22;20066;-69
2022/08/13 00:56:34;;;;;;;6.60;2.25;;;14.90;78.80;;;;;;6334561;22;20006;-69
2022/08/13 00:59:07;;;;;;;8.30;2.05;;;14.90;78.80;;;;;;6334499;22;19997;-71
2022/08/13 01:01:38;;;;;;;4.80;2.25;;;14.80;78.70;;;;;;6335216;22;20017;-68
2022/08/13 01:04:07;;;;;;;3.67;2.00;;;14.80;78.70;;;;;;6333895;22;20081;-69
2022/08/13 01:06:35;;;;;;;5.93;1.75;;;14.80;78.70;;;;;;6335112;22;19995;-69
2022/08/13 01:09:04;;;;;;;5.28;2.10;;;14.80;78.70;;;;;;6333592;22;20003;-69
2022/08/13 01:11:34;;;;;;;4.90;1.13;;;14.80;78.60;;;;;;6335227;22;20423;-71
2022/08/13 01:14:07;;;;;;;6.75;2.13;;;14.80;78.50;;;;;;6334553;22;20364;-71
2022/08/13 01:16:36;;;;;;;3.58;1.80;;;14.80;78.40;;;;;;6334036;22;19999;-69
2022/08/13 01:19:08;;;;;;;3.40;2.08;;;14.70;78.40;;;;;;6334682;22;20371;-69
2022/08/13 01:21:39;;;;;;;4.20;1.02;;;14.70;78.30;;;;;;6333779;22;20006;-71
2022/08/13 01:24:10;;;;;;;8.25;1.55;;;14.70;78.20;;;;;;6334478;22;19998;-68
2022/08/13 01:26:37;;;;;;;12.77;3.55;;;14.70;78.30;;;;;;6333928;22;20074;-70
2022/08/13 01:29:05;;;;;;;9.88;2.13;;;14.70;78.30;;;;;;6334200;22;20010;-67
2022/08/13 01:31:33;;;;;;;11.20;2.55;;;14.70;78.20;;;;;;6334614;22;20006;-71
2022/08/13 01:34:00;;;;;;;7.35;1.50;;;14.70;78.10;;;;;;6333926;22;20637;-68
2022/08/13 01:36:29;;;;;;;4.00;1.67;;;14.70;78.00;;;;;;6334635;22;19998;-71
2022/08/13 01:39:03;;;;;;;6.65;1.70;;;14.60;77.70;;;;;;6332767;22;20453;-70
2022/08/13 01:41:29;;;;;;;6.20;1.52;;;14.60;77.50;;;;;;6335296;22;20022;-68
2022/08/13 01:44:04;;;;;;;6.25;1.48;;;14.60;77.40;;;;;;6334171;22;20417;-71
2022/08/13 01:52:07;;;;;;;9.32;3.50;;;14.50;77.30;;;;;;6335299;22;20018;-72
2022/08/13 01:54:36;;;;;;;8.18;2.50;;;14.50;77.50;;;;;;6336893;22;20093;-68
2022/08/13 01:57:05;;;;;;;14.27;2.30;;;14.50;78.10;;;;;;6335675;22;20009;-70
2022/08/13 01:59:36;;;;;;;7.20;2.88;;;14.50;78.60;;;;;;6335572;22;20075;-69
2022/08/13 02:02:04;;;;;;;7.93;3.10;;;14.50;78.70;;;;;;6336525;22;19998;-69
2022/08/13 02:04:32;;;;;;;14.88;2.80;;;14.50;78.60;;;;;;6335696;22;19994;-69
2022/08/13 02:07:00;;;;;;;4.35;1.58;;;14.50;78.00;;;;;;6337010;22;20034;-69
2022/08/13 02:09:27;;;;;;;5.35;1.55;;;14.40;77.80;;;;;;6334899;22;20418;-69
2022/08/13 02:11:53;;;;;;;8.82;1.30;;;14.40;77.80;;;;;;6336209;22;20011;-71
2022/08/13 02:14:21;;;;;;;3.35;1.35;;;14.40;77.80;;;;;;6336255;22;20069;-69
2022/08/13 02:16:48;;;;;;;7.85;1.63;;;14.40;77.80;;;;;;6335542;22;20422;-69
2022/08/13 02:19:14;;;;;;;11.02;3.72;;;14.40;78.00;;;;;;6336300;22;20090;-70
2022/08/13 02:21:44;;;;;;;8.38;2.15;;;14.40;77.80;;;;;;6335453;22;19999;-68
2022/08/13 02:24:14;;;;;;;2.88;1.42;;;14.30;77.40;;;;;;6336164;22;20036;-71
2022/08/13 02:26:44;;;;;;;1.95;1.45;;;14.30;77.30;;;;;;6334898;22;20078;-69
2022/08/13 02:29:12;;;;;;;15.90;2.08;;;14.30;77.20;;;;;;6336408;22;20067;-70
2022/08/13 02:31:42;;;;;;;23.02;2.88;;;14.30;77.40;;;;;;6335957;22;20006;-68
2022/08/13 02:34:10;;;;;;;15.38;3.92;;;14.30;77.60;;;;;;6335697;22;19999;-70
2022/08/13 02:36:40;;;;;;;20.85;2.63;;;14.30;77.80;;;;;;6336588;22;19998;-68
2022/08/13 02:39:09;;;;;;;5.47;1.98;;;14.30;78.30;;;;;;6334491;22;20038;-71
2022/08/13 02:41:40;;;;;;;4.43;1.20;;;14.20;78.10;;;;;;6336376;22;20013;-68
2022/08/13 02:44:13;;;;;;;4.32;1.63;;;14.30;77.90;;;;;;6334888;22;20001;-68
2022/08/13 02:46:49;;;;;;;4.70;1.27;;;14.20;77.50;;;;;;6335813;22;20056;-69
2022/08/13 02:49:17;;;;;;;7.82;1.27;;;14.20;77.40;;;;;;6335914;22;19995;-70
2022/08/13 02:51:47;;;;;;;5.75;1.88;;;14.20;77.50;;;;;;6334746;22;20014;-70
2022/08/13 02:54:16;;;;;;;7.00;1.55;;;14.20;77.30;;;;;;6336085;22;19999;-71
2022/08/13 02:56:44;;;;;;;15.45;9.13;;;14.20;77.30;;;;;;6334709;22;19995;-70
2022/08/13 02:59:11;;;;;;;7.85;5.65;;;14.20;77.30;;;;;;6335818;22;20056;-71
2022/08/13 03:01:41;;;;;;;10.77;4.00;;;14.20;77.20;;;;;;6335114;22;20071;-69
2022/08/13 03:04:08;;;;;;;7.68;3.03;;;14.10;77.10;;;;;;6335272;22;19999;-69
2022/08/13 03:06:35;;;;;;;9.25;2.47;;;14.10;77.00;;;;;;6335936;22;20002;-71
2022/08/13 03:09:04;;;;;;;5.47;2.60;;;14.10;76.90;;;;;;6334869;22;19998;-69
2022/08/13 03:11:36;;;;;;;5.95;1.60;;;14.10;76.90;;;;;;6336166;22;20100;-68
2022/08/13 03:14:06;;;;;;;7.40;2.70;;;14.00;76.70;;;;;;6334626;22;20326;-68
2022/08/13 03:16:33;;;;;;;6.40;2.20;;;14.00;76.60;;;;;;6335863;22;20062;-69
2022/08/13 03:19:00;;;;;;;2.65;1.52;;;14.00;76.60;;;;;;6335348;22;20003;-70
2022/08/13 03:21:33;;;;;;;5.95;2.10;;;14.00;76.50;;;;;;6334745;22;20030;-68
2022/08/13 03:24:00;;;;;;;10.05;1.95;;;14.00;76.30;;;;;;6335852;22;20005;-68
2022/08/13 03:26:27;;;;;;;4.70;1.98;;;14.00;76.20;;;;;;6334385;22;20747;-70
2022/08/13 03:28:54;;;;;;;3.35;1.27;;;14.00;76.20;;;;;;6335737;22;19998;-68
2022/08/13 03:31:21;;;;;;;4.30;1.83;;;13.90;76.20;;;;;;6333931;22;20049;-69
2022/08/13 03:33:48;;;;;;;6.97;1.52;;;14.00;76.20;;;;;;6336072;22;20081;-70
2022/08/13 03:36:15;;;;;;;3.90;1.25;;;14.00;76.20;;;;;;6334464;22;20047;-68
2022/08/13 03:38:42;;;;;;;5.07;1.60;;;13.90;76.10;;;;;;6334898;22;20383;-68
2022/08/13 03:41:11;;;;;;;4.03;1.40;;;13.90;76.10;;;;;;6335781;22;20453;-67
2022/08/13 03:43:42;;;;;;;8.60;1.38;;;13.90;76.10;;;;;;6334606;22;19995;-69
2022/08/13 03:46:10;;;;;;;9.48;1.88;;;13.90;76.80;;;;;;6335288;22;20009;-67
2022/08/13 03:48:37;;;;;;;9.55;3.42;;;13.90;76.80;;;;;;6334626;22;20303;-67
2022/08/13 03:51:04;;;;;;;14.63;9.07;;;13.90;77.30;;;;;;6333322;22;20330;-69
2022/08/13 03:53:30;;;;;;;21.92;9.50;;;13.90;78.00;;;;;;6334942;22;19999;-68
2022/08/13 03:55:58;;;;;;;36.47;7.78;;;13.80;78.00;;;;;;6334684;22;20092;-68
2022/08/13 03:58:26;;;;;;;10.40;5.03;;;13.90;77.70;;;;;;6335703;22;20095;-67
2022/08/13 04:00:53;;;;;;;6.15;2.47;;;13.80;76.60;;;;;;6334022;22;20048;-70
2022/08/13 04:03:24;;;;;;;5.65;2.15;;;13.80;76.00;;;;;;6334437;22;20048;-69
2022/08/13 04:05:55;;;;;;;7.10;1.70;;;13.80;75.70;;;;;;6332234;22;20007;-69
2022/08/13 04:08:21;;;;;;;37.20;5.05;;;13.80;75.60;;;;;;6335859;22;20002;-68
2022/08/13 04:10:49;;;;;;;5.10;1.58;;;13.70;75.40;;;;;;6334487;22;19999;-71
2022/08/13 04:13:16;;;;;;;5.03;1.65;;;13.70;75.30;;;;;;6334333;22;20003;-67
2022/08/13 04:16:23;;;;;;;3.90;1.50;;;13.70;75.20;;;;;;6335558;22;20070;-69
2022/08/13 04:18:51;;;;;;;3.00;1.70;;;13.70;75.00;;;;;;6332509;22;20027;-69
2022/08/13 04:21:19;;;;;;;4.82;1.67;;;13.70;75.00;;;;;;6335121;22;19999;-68
2022/08/13 04:23:48;;;;;;;7.35;1.48;;;13.60;74.90;;;;;;6332630;22;20009;-69
2022/08/13 04:26:17;;;;;;;2.67;1.77;;;13.60;74.90;;;;;;6332726;22;20025;-68
2022/08/13 04:28:45;;;;;;;4.20;1.38;;;13.60;74.90;;;;;;6335387;22;20378;-68
2022/08/13 04:31:12;;;;;;;1.70;1.17;;;13.60;74.80;;;;;;6333213;22;20014;-68
2022/08/13 04:33:40;;;;;;;6.07;1.40;;;13.60;74.70;;;;;;6335140;22;20068;-69
2022/08/13 04:36:07;;;;;;;4.07;1.48;;;13.50;74.60;;;;;;6333525;22;20628;-69
2022/08/13 04:38:34;;;;;;;7.55;1.75;;;13.50;74.60;;;;;;6334785;22;19995;-68
2022/08/13 04:41:01;;;;;;;12.20;1.55;;;13.50;74.60;;;;;;6334978;22;19999;-69
2022/08/13 04:43:29;;;;;;;23.40;6.07;;;13.50;74.70;;;;;;6334430;22;20014;-70
2022/08/13 04:46:04;;;;;;;13.27;4.22;;;13.50;75.40;;;;;;6334600;22;20003;-69
2022/08/13 04:48:35;;;;;;;8.95;2.80;;;13.50;75.60;;;;;;6333608;22;20027;-69
2022/08/13 04:51:41;;;;;;;5.05;1.67;;;13.50;75.90;;;;;;6334048;22;20400;-70
2022/08/13 04:54:07;;;;;;;4.00;2.03;;;13.50;75.50;;;;;;6333712;22;20455;-69
2022/08/13 04:56:34;;;;;;;3.50;1.35;;;13.40;75.00;;;;;;6333689;22;19999;-68
2022/08/13 04:59:00;;;;;;;3.65;1.60;;;13.40;74.80;;;;;;6334020;22;20308;-68
2022/08/13 05:02:06;;;;;;;4.82;1.70;;;13.40;74.70;;;;;;6332965;22;20003;-72
2022/08/13 05:05:14;;;;;;;6.35;1.80;;;13.40;74.60;;;;;;6334876;22;20316;-69
2022/08/13 05:07:45;;;;;;;5.63;3.65;;;13.40;74.90;;;;;;6334675;22;20011;-70
2022/08/13 05:10:11;;;;;;;7.18;2.47;;;13.30;75.20;;;;;;6331950;22;20387;-68
2022/08/13 05:12:38;;;;;;;24.50;3.03;;;13.30;75.20;;;;;;6334662;22;20026;-71
2022/08/13 05:15:06;;;;;;;5.43;1.38;;;13.30;75.20;;;;;;6333210;22;20002;-72
2022/08/13 05:17:33;;;;;;;11.73;3.40;;;13.30;75.10;;;;;;6334693;22;19999;-68
2022/08/13 05:19:59;;;;;;;5.28;1.80;;;13.30;75.00;;;;;;6333813;22;20445;-68
2022/08/13 05:22:29;;;;;;;5.18;2.08;;;13.30;74.90;;;;;;6333633;22;20052;-69
2022/08/13 05:24:56;;;;;;;16.02;2.85;;;13.20;74.80;;;;;;6334153;22;20022;-68
2022/08/13 05:27:23;;;;;;;6.55;2.33;;;13.20;74.90;;;;;;6332685;22;20064;-70
2022/08/13 05:29:50;;;;;;;5.07;2.30;;;13.20;75.10;;;;;;6334549;22;20006;-70
2022/08/13 05:32:17;;;;;;;6.55;2.00;;;13.20;75.20;;;;;;6331828;22;20409;-68
2022/08/13 05:34:43;;;;;;;3.75;1.75;;;13.20;75.00;;;;;;6334875;22;20021;-68
2022/08/13 05:37:16;;;;;;;23.98;15.70;;;13.20;74.90;;;;;;6332830;22;20415;-69
2022/08/13 05:39:43;;;;;;;21.77;15.40;;;13.20;74.70;;;;;;6333833;22;19999;-70
2022/08/13 05:42:10;;;;;;;22.17;14.48;;;13.10;74.10;;;;;;6333840;22;20078;-72
2022/08/13 05:44:37;;;;;;;12.40;8.15;;;13.00;74.70;;;;;;6332657;22;20002;-68
2022/08/13 05:47:05;;;;;;;6.88;4.10;;;13.00;75.00;;;;;;6331403;22;20037;-72
2022/08/13 05:49:33;;;;;;;4.85;2.80;;;13.00;75.40;;;;;;6333762;22;20002;-70
2022/08/13 05:52:01;;;;;;;7.40;2.83;;;13.00;75.50;;;;;;6334526;22;20018;-69
2022/08/13 05:55:07;;;;;;;5.18;1.55;;;13.10;75.60;;;;;;6333280;22;20048;-68
2022/08/13 05:58:13;;;;;;;8.05;2.42;;;13.10;75.50;;;;;;6333479;22;20003;-71
2022/08/13 06:04:44;;;;;;;7.28;1.98;;;13.10;75.80;;;;;;6334436;22;20014;-68
2022/08/13 06:07:52;;;;;;;5.78;1.73;;;13.10;75.90;;;;;;6333403;22;20426;-68
2022/08/13 06:10:59;;;;;;;6.93;2.83;;;13.00;75.90;;;;;;6333760;22;20391;-67
2022/08/13 06:14:05;;;;;;;6.13;3.40;;;13.00;76.10;;;;;;6334683;22;20003;-68
2022/08/13 06:17:12;;;;;;;7.28;3.25;;;13.00;76.30;;;;;;6334438;22;19999;-67
2022/08/13 06:20:18;;;;;;;7.75;3.70;;;13.00;76.50;;;;;;6331515;22;20048;-69
2022/08/13 06:23:24;;;;;;;13.13;5.88;;;13.00;76.60;;;;;;6334108;22;20009;-67
2022/08/13 06:26:30;;;;;;;7.38;4.35;;;13.00;76.90;;;;;;6334323;22;20512;-69
2022/08/13 06:29:36;;;;;;;11.45;4.90;;;13.10;77.10;;;;;;6333930;22;20003;-71
2022/08/13 06:32:44;;;;;;;10.02;4.07;;;13.10;77.40;;;;;;6332902;22;20073;-71
2022/08/13 06:35:50;;;;;;;13.23;5.10;;;13.10;77.60;;;;;;6334529;22;20048;-68
2022/08/13 06:38:56;;;;;;;8.43;4.28;;;13.10;77.80;;;;;;6335574;22;20014;-69
2022/08/13 06:42:02;;;;;;;13.40;5.35;;;13.10;78.10;;;;;;6334963;22;20003;-72
2022/08/13 06:45:11;;;;;;;13.13;5.28;;;13.10;78.50;;;;;;6336049;22;20056;-71
2022/08/13 06:48:17;;;;;;;13.88;5.07;;;13.10;78.90;;;;;;6335936;22;20501;-67
2022/08/13 06:51:23;;;;;;;13.25;4.40;;;13.20;79.20;;;;;;6335504;22;20434;-70
2022/08/13 06:54:29;;;;;;;10.07;2.45;;;13.20;79.60;;;;;;6334839;22;20074;-73
2022/08/13 06:57:36;;;;;;;7.38;2.33;;;13.20;79.90;;;;;;6336263;22;20006;-68
2022/08/13 07:00:08;;;;;;;3.70;1.60;;;13.20;80.30;;;;;;6336137;22;20295;-69
2022/08/13 07:02:35;;;;;;;13.70;3.70;;;13.30;80.50;;;;;;6333841;22;20059;-69
2022/08/13 07:05:04;;;;;;;8.00;1.70;;;13.30;80.70;;;;;;6333919;22;20438;-70
2022/08/13 07:07:32;;;;;;;6.30;1.45;;;13.40;81.10;;;;;;6334738;22;20073;-70
2022/08/13 07:10:00;;;;;;;9.85;1.80;;;13.40;81.80;;;;;;6335340;22;20010;-70
2022/08/13 07:12:26;;;;;;;3.88;1.55;;;13.40;82.10;;;;;;6335349;22;20417;-69
2022/08/13 07:14:53;;;;;;;7.35;2.42;;;13.50;82.40;;;;;;6334901;22;20334;-71
2022/08/13 07:17:21;;;;;;;5.78;1.55;;;13.50;82.50;;;;;;6335846;22;19995;-70
2022/08/13 07:19:47;;;;;;;3.88;1.98;;;13.50;82.60;;;;;;6334301;22;20044;-68
2022/08/13 07:22:15;;;;;;;7.35;1.83;;;13.60;82.90;;;;;;6336065;22;20041;-70
2022/08/13 07:24:50;;;;;;;7.72;2.10;;;13.60;83.00;;;;;;6334684;22;20018;-68
2022/08/13 07:27:17;;;;;;;9.70;3.15;;;13.70;83.20;;;;;;6335533;22;19995;-69
2022/08/13 07:29:46;;;;;;;12.00;4.47;;;13.70;83.40;;;;;;6335679;22;20026;-71
2022/08/13 07:32:12;;;;;;;12.02;6.07;;;13.70;83.70;;;;;;6334093;22;20007;-71
2022/08/13 07:34:39;;;;;;;18.35;5.57;;;13.70;83.80;;;;;;6335809;22;20010;-69
2022/08/13 07:37:05;;;;;;;10.07;4.50;;;13.80;84.00;;;;;;6334609;22;19998;-68
2022/08/13 07:39:32;;;;;;;4.85;2.78;;;13.90;84.00;;;;;;6335420;22;20002;-70
2022/08/13 07:41:59;;;;;;;8.57;2.70;;;13.90;84.00;;;;;;6333882;22;20003;-71
2022/08/13 07:44:25;;;;;;;7.03;2.15;;;13.90;83.90;;;;;;6335477;22;20479;-70
2022/08/13 07:46:53;;;;;;;9.43;2.90;;;13.90;83.90;;;;;;6334815;22;20029;-69
2022/08/13 07:49:21;;;;;;;6.22;2.72;;;14.00;83.90;;;;;;6334511;22;20020;-70
2022/08/13 07:51:48;;;;;;;6.68;3.25;;;14.00;83.60;;;;;;6335366;22;20433;-68
2022/08/13 07:54:15;;;;;;;10.45;3.08;;;14.00;83.60;;;;;;6334236;22;20033;-71
2022/08/13 07:56:47;;;;;;;18.45;2.95;;;14.00;83.40;;;;;;6335803;22;20002;-71
2022/08/13 07:59:17;;;;;;;92.95;12.73;;;14.10;83.60;;;;;;6334367;22;20055;-68
2022/08/13 08:01:48;;;;;;;43.67;8.45;;;14.10;83.60;;;;;;6335342;22;19991;-71
2022/08/13 08:04:18;;;;;;;30.02;5.68;;;14.20;83.70;;;;;;6335237;22;20069;-71
2022/08/13 08:06:47;;;;;;;20.15;4.22;;;14.20;83.90;;;;;;6333978;22;20016;-70
2022/08/13 08:09:24;;;;;;;10.98;5.20;;;14.30;83.90;;;;;;6335433;22;20003;-68
2022/08/13 08:14:41;;;;;;;13.27;4.63;;;14.40;83.80;;;;;;6319008;22;20003;-72
2022/08/13 08:17:09;;;;;;;10.32;3.03;;;14.40;83.70;;;;;;6334269;22;20044;-72
2022/08/13 08:19:39;;;;;;;5.88;2.78;;;14.40;83.50;;;;;;6334321;22;20005;-70
2022/08/13 08:22:13;;;;;;;6.35;2.85;;;14.50;83.40;;;;;;6335397;22;19994;-72
2022/08/13 08:24:40;;;;;;;15.32;3.28;;;14.50;83.30;;;;;;6333958;22;20061;-71
2022/08/13 08:27:11;;;;;;;5.50;2.10;;;14.60;83.90;;;;;;6333150;22;20030;-72
2022/08/13 08:29:40;;;;;;;5.70;1.77;;;14.60;84.10;;;;;;6333936;22;19995;-70
2022/08/13 08:32:08;;;;;;;8.43;2.25;;;14.70;84.30;;;;;;6335320;22;20010;-73
2022/08/13 08:34:36;;;;;;;6.80;2.08;;;14.70;84.30;;;;;;6335621;22;20066;-72
2022/08/13 08:37:04;;;;;;;14.02;4.05;;;14.80;84.10;;;;;;6334493;22;20330;-71
2022/08/13 08:42:36;;;;;;;;;;;14.90;84.10;;;;;;6333530;22;20029;-72
2022/08/13 08:45:42;;;;;;;8.02;2.63;;;14.90;83.80;;;;;;6335262;22;19902;-68
2022/08/13 08:48:46;;;;;;;7.20;2.17;;;14.90;83.40;;;;;;6334967;22;20457;-73
2022/08/13 08:51:13;;;;;;;4.53;1.38;;;15.00;83.30;;;;;;6332219;22;20466;-73
2022/08/13 08:53:44;;;;;;;5.85;1.67;;;15.00;83.00;;;;;;6335048;22;20022;-73
2022/08/13 08:56:12;;;;;;;3.53;1.45;;;15.00;82.70;;;;;;6334989;22;19999;-70
2022/08/13 08:58:41;;;;;;;4.72;1.50;;;15.10;82.70;;;;;;6334541;22;20065;-76
2022/08/13 09:01:10;;;;;;;4.47;1.63;;;15.10;82.80;;;;;;6334535;22;20454;-69
2022/08/13 09:03:42;;;;;;;6.43;2.10;;;15.20;83.00;;;;;;6334046;22;20457;-76
2022/08/13 09:06:11;;;;;;;4.18;1.95;;;15.20;83.10;;;;;;6334917;22;20063;-71
2022/08/13 09:08:39;;;;;;;8.07;1.95;;;15.20;83.10;;;;;;6333824;22;19994;-70
2022/08/13 09:11:06;;;;;;;3.03;1.75;;;15.20;83.00;;;;;;6333736;22;20002;-72
2022/08/13 09:13:35;;;;;;;10.00;2.97;;;15.30;83.00;;;;;;6334958;22;20060;-69
2022/08/13 09:16:01;;;;;;;10.25;3.05;;;15.40;83.20;;;;;;6333851;22;19995;-69
2022/08/13 09:18:30;;;;;;;4.43;1.55;;;15.40;83.30;;;;;;6335056;22;19999;-72
2022/08/13 09:20:58;;;;;;;9.00;1.73;;;15.50;83.40;;;;;;6333477;22;20368;-70
2022/08/13 09:23:25;;;;;;;6.53;1.55;;;15.50;83.20;;;;;;6334509;22;20002;-75
2022/08/13 09:25:51;;;;;;;5.50;1.50;;;15.60;83.30;;;;;;6333658;22;20716;-75
2022/08/13 09:28:26;;;;;;;5.18;1.48;;;15.60;83.20;;;;;;6335200;22;20006;-75
2022/08/13 09:30:55;;;;;;;5.03;1.10;;;15.70;83.30;;;;;;6334680;22;20078;-74
2022/08/13 09:33:24;;;;;;;4.88;1.30;;;15.70;83.40;;;;;;6333662;22;20085;-70
2022/08/13 09:35:53;;;;;;;5.22;1.17;;;15.70;83.30;;;;;;6334601;22;19999;-74
2022/08/13 09:38:23;;;;;;;10.15;1.52;;;15.70;83.20;;;;;;6334171;22;20021;-74
2022/08/13 09:40:56;;;;;;;6.43;1.15;;;15.80;82.70;;;;;;6334735;22;20003;-72
2022/08/13 09:43:31;;;;;;;5.05;1.48;;;15.70;80.70;;;;;;6334363;22;19999;-70
2022/08/13 09:45:57;;;;;;;;;;;15.70;79.40;;;;;;6334639;22;20318;-73
2022/08/13 09:48:28;;;;;;;2.05;0.52;;;15.70;79.00;;;;;;6335071;22;19902;-74
2022/08/13 09:50:55;;;;;;;7.95;1.83;;;15.80;78.40;;;;;;6333194;22;20457;-75
2022/08/13 09:53:25;;;;;;;3.85;1.02;;;15.80;77.50;;;;;;6334616;22;19995;-73
2022/08/13 09:55:52;;;;;;;3.47;1.58;;;15.80;76.90;;;;;;6333768;22;19998;-67
2022/08/13 09:58:19;;;;;;;6.88;1.10;;;15.90;76.30;;;;;;6335053;22;20073;-69
2022/08/13 10:00:46;;;;;;;4.60;0.77;;;15.90;76.00;;;;;;6334444;22;20360;-71
2022/08/13 10:03:14;;;;;;;5.60;1.42;;;15.90;75.50;;;;;;6334049;22;20002;-67
2022/08/13 10:05:40;;;;;;;8.60;1.00;;;16.00;75.10;;;;;;6334768;22;20357;-76
2022/08/13 10:08:13;;;;;;;3.65;1.40;;;16.00;74.40;;;;;;6334274;22;20002;-70
2022/08/13 10:10:57;;;;;;;4.00;0.90;;;16.00;73.90;;;;;;6334314;22;19995;-69
2022/08/13 10:13:24;;;;;;;13.63;1.08;;;16.00;73.70;;;;;;6333299;22;20352;-72
2022/08/13 10:15:50;;;;;;;7.78;0.85;;;16.00;73.50;;;;;;6335973;22;19999;-72
2022/08/13 10:18:16;;;;;;;16.30;5.75;;;16.00;73.00;;;;;;6336235;22;20077;-72
2022/08/13 10:20:48;;;;;;;14.32;7.43;;;16.00;72.50;;;;;;6334062;22;20003;-71
2022/08/13 10:23:16;;;;;;;8.88;4.40;;;16.10;72.40;;;;;;6336000;22;20434;-72
2022/08/13 10:25:46;;;;;;;9.27;2.92;;;16.00;72.40;;;;;;6334507;22;20019;-75
2022/08/13 10:28:16;;;;;;;8.02;2.42;;;16.00;72.40;;;;;;6336237;22;19995;-71
2022/08/13 10:30:43;;;;;;;7.75;2.05;;;16.10;72.10;;;;;;6335216;22;19999;-72
2022/08/13 10:33:12;;;;;;;8.82;1.63;;;16.10;71.50;;;;;;6335705;22;20052;-72
2022/08/13 10:35:40;;;;;;;11.07;1.80;;;16.10;71.30;;;;;;6335599;22;20009;-71
2022/08/13 10:38:08;;;;;;;10.55;2.38;;;16.10;71.30;;;;;;6332949;22;20103;-71
2022/08/13 10:40:35;;;;;;;5.22;1.40;;;16.10;71.00;;;;;;6336227;22;20072;-70
2022/08/13 10:43:02;;;;;;;6.68;1.40;;;16.10;71.30;;;;;;6334554;22;20044;-71
2022/08/13 10:45:30;;;;;;;2.85;0.80;;;16.10;71.00;;;;;;6335864;22;20418;-71
2022/08/13 10:47:56;;;;;;;8.13;1.50;;;16.10;70.40;;;;;;6335613;22;20007;-70
2022/08/13 10:50:31;;;;;;;9.35;0.90;;;16.10;69.70;;;;;;6335672;22;20299;-72
2022/08/13 10:52:59;;;;;;;9.75;1.65;;;16.10;69.60;;;;;;6335762;22;20007;-72
2022/08/13 10:55:27;;;;;;;3.25;1.05;;;16.20;69.80;;;;;;6335281;22;20057;-71
2022/08/13 10:57:53;;;;;;;6.10;1.10;;;16.20;70.60;;;;;;6336061;22;19999;-71
2022/08/13 11:00:20;;;;;;;4.60;1.33;;;16.30;71.00;;;;;;6334582;22;20008;-71
2022/08/13 11:02:49;;;;;;;5.75;1.70;;;16.30;70.80;;;;;;6335849;22;20319;-72
2022/08/13 11:05:25;;;;;;;5.53;1.77;;;16.30;70.60;;;;;;6334949;22;19999;-72
2022/08/13 11:07:55;;;;;;;7.55;1.83;;;16.30;71.40;;;;;;6335288;22;20078;-72
2022/08/13 11:10:22;;;;;;;4.35;1.23;;;16.30;71.10;;;;;;6335615;22;20003;-69
2022/08/13 11:12:52;;;;;;;4.82;1.27;;;16.30;71.50;;;;;;6334545;22;20011;-72
2022/08/13 11:15:22;;;;;;;9.18;1.70;;;16.40;71.90;;;;;;6336109;22;19999;-72
2022/08/13 11:17:50;;;;;;;8.30;1.63;;;16.40;72.30;;;;;;6333991;22;20056;-73
2022/08/13 11:20:19;;;;;;;5.28;1.63;;;16.40;72.60;;;;;;6335771;22;19998;-73
2022/08/13 11:22:54;;;;;;;21.42;3.88;;;16.40;72.70;;;;;;6335090;22;20346;-72
2022/08/13 11:25:21;;;;;;;9.63;1.83;;;16.40;73.00;;;;;;6334954;22;20015;-73
2022/08/13 11:27:49;;;;;;;3.38;1.63;;;16.40;73.40;;;;;;6335901;22;19999;-69
2022/08/13 11:30:16;;;;;;;4.55;1.40;;;16.50;73.50;;;;;;6334391;22;20438;-69
2022/08/13 11:32:43;;;;;;;4.50;2.00;;;16.60;73.70;;;;;;6335375;22;20015;-70
2022/08/13 11:35:12;;;;;;;6.65;1.27;;;16.70;73.80;;;;;;6332721;22;20497;-70
2022/08/13 11:37:39;;;;;;;5.63;1.50;;;16.80;74.00;;;;;;6335711;22;19999;-71
2022/08/13 11:40:06;;;;;;;8.75;1.10;;;16.90;73.90;;;;;;6334323;22;20494;-73
2022/08/13 11:42:32;;;;;;;7.35;2.42;;;16.90;73.50;;;;;;6334748;22;19998;-70
2022/08/13 11:44:59;;;;;;;2.97;0.88;;;17.00;73.20;;;;;;6335914;22;19998;-71
2022/08/13 11:47:26;;;;;;;3.45;1.23;;;17.00;72.90;;;;;;6332208;22;20352;-71
2022/08/13 11:49:52;;;;;;;9.10;1.02;;;17.10;72.40;;;;;;6335549;22;19994;-71
2022/08/13 11:52:19;;;;;;;4.25;1.17;;;17.10;71.90;;;;;;6334481;22;20098;-71
2022/08/13 11:54:45;;;;;;;3.90;1.20;;;17.10;71.50;;;;;;6335401;22;20024;-70
2022/08/13 11:57:12;;;;;;;4.72;0.90;;;17.20;71.30;;;;;;6335036;22;20003;-72
2022/08/13 11:59:38;;;;;;;2.35;1.08;;;17.20;71.00;;;;;;6334648;22;19991;-73
2022/08/13 12:02:06;;;;;;;6.65;2.25;;;17.20;70.40;;;;;;6335469;22;19998;-72
2022/08/13 12:04:36;;;;;;;2.97;1.00;;;17.20;69.70;;;;;;6333074;22;20446;-73
2022/08/13 12:07:03;;;;;;;4.90;1.55;;;17.20;69.80;;;;;;6335966;22;20726;-72
2022/08/13 12:09:29;;;;;;;3.90;0.80;;;17.30;70.00;;;;;;6333941;22;20430;-70
2022/08/13 12:11:56;;;;;;;5.63;1.15;;;17.30;69.70;;;;;;6335454;22;20014;-70
2022/08/13 12:14:22;;;;;;;9.02;1.88;;;17.20;69.70;;;;;;6334858;22;20066;-71
2022/08/13 12:16:49;;;;;;;12.43;1.85;;;17.30;69.90;;;;;;6334851;22;20003;-73
2022/08/13 12:19:15;;;;;;;5.40;2.60;;;17.30;70.20;;;;;;6334070;22;20093;-70
2022/08/13 12:21:42;;;;;;;20.73;13.80;;;17.30;70.60;;;;;;6331599;22;20382;-69
2022/08/13 12:24:08;;;;;;;29.95;22.40;;;17.40;70.70;;;;;;6332853;22;20026;-71
2022/08/13 12:26:35;;;;;;;13.65;8.75;;;17.40;70.00;;;;;;6333095;22;19998;-72
2022/08/13 12:29:01;;;;;;;7.75;4.53;;;17.50;69.30;;;;;;6334731;22;20018;-72
2022/08/13 12:31:27;;;;;;;10.77;2.90;;;17.50;68.30;;;;;;6332996;22;20442;-71
2022/08/13 12:33:54;;;;;;;6.85;2.35;;;17.60;66.90;;;;;;6334318;22;20326;-70
2022/08/13 12:36:22;;;;;;;16.20;2.00;;;17.60;65.60;;;;;;6333611;22;19999;-71
2022/08/13 12:38:48;;;;;;;5.20;1.52;;;17.60;65.10;;;;;;6333886;22;20426;-73
2022/08/13 12:41:15;;;;;;;3.03;1.30;;;17.60;65.50;;;;;;6334863;22;20010;-69
2022/08/13 12:43:41;;;;;;;9.80;2.80;;;17.60;65.50;;;;;;6333143;22;20164;-72
2022/08/13 12:46:10;;;;;;;9.18;1.30;;;17.50;64.80;;;;;;6334224;22;20002;-72
2022/08/13 12:48:36;;;;;;;9.40;1.33;;;17.50;64.30;;;;;;6333662;22;19999;-72
2022/08/13 12:51:03;;;;;;;6.50;1.65;;;17.50;64.30;;;;;;6335006;22;20101;-72
2022/08/13 12:53:29;;;;;;;4.43;1.75;;;17.40;64.50;;;;;;6334119;22;20034;-69
2022/08/13 12:55:56;;;;;;;10.57;2.85;;;17.40;65.50;;;;;;6334078;22;20002;-68
2022/08/13 12:58:27;;;;;;;5.95;1.67;;;17.40;66.40;;;;;;6334484;22;20073;-69
2022/08/13 13:00:55;;;;;;;7.93;2.10;;;17.40;67.90;;;;;;6333796;22;20003;-70
2022/08/13 13:03:22;;;;;;;8.00;2.22;;;17.40;69.10;;;;;;6335120;22;20361;-72
2022/08/13 13:05:51;;;;;;;11.27;2.67;;;17.30;70.00;;;;;;6333227;22;20073;-70
2022/08/13 13:08:21;;;;;;;12.77;3.00;;;17.30;70.60;;;;;;6333791;22;20071;-70
2022/08/13 13:10:49;;;;;;;6.95;2.60;;;17.30;70.30;;;;;;6332392;22;20048;-70
2022/08/13 13:13:17;;;;;;;3.58;1.92;;;17.30;69.90;;;;;;6333640;22;20019;-68
2022/08/13 13:15:44;;;;;;;7.68;1.85;;;17.20;69.60;;;;;;6334480;22;20473;-71
2022/08/13 13:18:13;;;;;;;13.13;2.83;;;17.20;68.70;;;;;;6333002;22;20078;-68
2022/08/13 13:20:41;;;;;;;9.13;1.38;;;17.10;68.20;;;;;;6333606;22;20333;-70
2022/08/13 13:23:19;;;;;;;7.55;1.73;;;17.10;68.20;;;;;;6332969;22;20036;-73
2022/08/13 13:25:47;;;;;;;15.27;6.28;;;17.00;67.50;;;;;;6333891;22;20015;-66
2022/08/13 13:28:33;;;;;;;13.27;6.60;;;17.10;67.40;;;;;;6334598;22;20030;-67